sensor_id;sensor_type;location;lat;lon;timestamp;P1;durP1;ratioP1;P2;durP2;ratioP2
22439;SDS011;11387;51.612;7.210;2023-02-18T00:01:48;83.38;;;47.60;;
22439;SDS011;11387;51.612;7.210;2023-02-18T00:04:16;103.85;;;51.15;;
22439;SDS011;11387;51.612;7.210;2023-02-18T00:06:45;113.30;;;53.13;;
22439;SDS011;11387;51.612;7.210;2023-02-18T00:09:15;118.45;;;57.55;;
22439;SDS011;11387;51.612;7.210;2023-02-18T00:11:44;113.65;;;57.15;;
22439;SDS011;11387;51.612;7.210;2023-02-18T00:14:13;108.82;;;56.88;;
22439;SDS011;11387;51.612;7.210;2023-02-18T00:16:43;116.00;;;56.80;;
22439;SDS011;11387;51.612;7.210;2023-02-18T00:19:13;105.13;;;55.45;;
22439;SDS011;11387;51.612;7.210;2023-02-18T00:21:43;105.15;;;53.90;;
22439;SDS011;11387;51.612;7.210;2023-02-18T00:24:12;120.55;;;56.72;;
22439;SDS011;11387;51.612;7.210;2023-02-18T00:26:50;121.18;;;57.60;;
22439;SDS011;11387;51.612;7.210;2023-02-18T00:29:19;134.57;;;58.47;;
22439;SDS011;11387;51.612;7.210;2023-02-18T00:31:48;116.97;;;56.65;;
22439;SDS011;11387;51.612;7.210;2023-02-18T00:34:17;120.93;;;55.67;;
22439;SDS011;11387;51.612;7.210;2023-02-18T00:36:46;112.45;;;51.10;;
22439;SDS011;11387;51.612;7.210;2023-02-18T00:39:14;114.30;;;52.50;;
22439;SDS011;11387;51.612;7.210;2023-02-18T00:41:43;107.93;;;52.30;;
22439;SDS011;11387;51.612;7.210;2023-02-18T00:44:13;103.93;;;48.90;;
22439;SDS011;11387;51.612;7.210;2023-02-18T00:46:41;106.13;;;49.05;;
22439;SDS011;11387;51.612;7.210;2023-02-18T00:49:10;98.18;;;44.92;;
22439;SDS011;11387;51.612;7.210;2023-02-18T00:51:39;102.85;;;46.45;;
22439;SDS011;11387;51.612;7.210;2023-02-18T00:54:09;110.15;;;45.63;;
22439;SDS011;11387;51.612;7.210;2023-02-18T00:56:38;91.82;;;42.35;;
22439;SDS011;11387;51.612;7.210;2023-02-18T00:59:06;92.22;;;44.22;;
22439;SDS011;11387;51.612;7.210;2023-02-18T01:01:36;92.25;;;43.35;;
22439;SDS011;11387;51.612;7.210;2023-02-18T01:04:06;99.10;;;43.70;;
22439;SDS011;11387;51.612;7.210;2023-02-18T01:06:34;108.88;;;42.42;;
22439;SDS011;11387;51.612;7.210;2023-02-18T01:09:03;86.25;;;41.33;;
22439;SDS011;11387;51.612;7.210;2023-02-18T01:11:32;89.00;;;40.85;;
22439;SDS011;11387;51.612;7.210;2023-02-18T01:14:00;88.38;;;42.20;;
22439;SDS011;11387;51.612;7.210;2023-02-18T01:16:30;88.72;;;42.22;;
22439;SDS011;11387;51.612;7.210;2023-02-18T01:18:59;101.78;;;46.33;;
22439;SDS011;11387;51.612;7.210;2023-02-18T01:21:28;117.43;;;48.45;;
22439;SDS011;11387;51.612;7.210;2023-02-18T01:23:56;102.35;;;49.60;;
22439;SDS011;11387;51.612;7.210;2023-02-18T01:26:25;127.10;;;51.67;;
22439;SDS011;11387;51.612;7.210;2023-02-18T01:28:53;117.15;;;53.08;;
22439;SDS011;11387;51.612;7.210;2023-02-18T01:31:22;112.63;;;53.90;;
22439;SDS011;11387;51.612;7.210;2023-02-18T01:33:50;126.88;;;59.45;;
22439;SDS011;11387;51.612;7.210;2023-02-18T01:36:20;145.88;;;62.50;;
22439;SDS011;11387;51.612;7.210;2023-02-18T01:38:48;121.30;;;59.30;;
22439;SDS011;11387;51.612;7.210;2023-02-18T01:41:17;129.25;;;62.92;;
22439;SDS011;11387;51.612;7.210;2023-02-18T01:43:45;146.40;;;64.10;;
22439;SDS011;11387;51.612;7.210;2023-02-18T01:46:15;139.75;;;61.10;;
22439;SDS011;11387;51.612;7.210;2023-02-18T01:48:46;122.95;;;59.10;;
22439;SDS011;11387;51.612;7.210;2023-02-18T01:51:20;139.00;;;61.47;;
22439;SDS011;11387;51.612;7.210;2023-02-18T01:53:52;135.38;;;62.53;;
22439;SDS011;11387;51.612;7.210;2023-02-18T01:56:24;129.63;;;61.20;;
22439;SDS011;11387;51.612;7.210;2023-02-18T01:58:57;112.45;;;56.50;;
22439;SDS011;11387;51.612;7.210;2023-02-18T02:01:29;131.10;;;58.55;;
22439;SDS011;11387;51.612;7.210;2023-02-18T02:03:59;112.20;;;55.08;;
22439;SDS011;11387;51.612;7.210;2023-02-18T02:06:29;115.90;;;56.67;;
22439;SDS011;11387;51.612;7.210;2023-02-18T02:08:59;112.45;;;53.45;;
22439;SDS011;11387;51.612;7.210;2023-02-18T02:11:48;118.32;;;54.75;;
22439;SDS011;11387;51.612;7.210;2023-02-18T02:14:48;117.00;;;52.72;;
22439;SDS011;11387;51.612;7.210;2023-02-18T02:17:30;120.03;;;53.83;;
22439;SDS011;11387;51.612;7.210;2023-02-18T02:23:26;90.10;;;47.58;;
22439;SDS011;11387;51.612;7.210;2023-02-18T02:26:22;115.50;;;52.67;;
22439;SDS011;11387;51.612;7.210;2023-02-18T02:29:21;100.88;;;49.83;;
22439;SDS011;11387;51.612;7.210;2023-02-18T02:35:02;120.63;;;52.40;;
22439;SDS011;11387;51.612;7.210;2023-02-18T02:37:36;142.65;;;56.88;;
22439;SDS011;11387;51.612;7.210;2023-02-18T02:40:14;133.00;;;59.05;;
22439;SDS011;11387;51.612;7.210;2023-02-18T02:42:57;142.93;;;60.53;;
22439;SDS011;11387;51.612;7.210;2023-02-18T02:45:37;144.63;;;58.55;;
22439;SDS011;11387;51.612;7.210;2023-02-18T02:48:19;124.18;;;54.10;;
22439;SDS011;11387;51.612;7.210;2023-02-18T02:50:54;105.30;;;52.40;;
22439;SDS011;11387;51.612;7.210;2023-02-18T02:53:31;115.20;;;51.53;;
22439;SDS011;11387;51.612;7.210;2023-02-18T02:56:02;99.55;;;48.33;;
22439;SDS011;11387;51.612;7.210;2023-02-18T02:58:31;107.30;;;49.35;;
22439;SDS011;11387;51.612;7.210;2023-02-18T03:04:04;104.93;;;46.60;;
22439;SDS011;11387;51.612;7.210;2023-02-18T03:09:58;84.20;;;41.10;;
22439;SDS011;11387;51.612;7.210;2023-02-18T03:12:42;95.38;;;41.83;;
22439;SDS011;11387;51.612;7.210;2023-02-18T03:15:19;85.93;;;39.03;;
22439;SDS011;11387;51.612;7.210;2023-02-18T03:17:56;103.43;;;42.63;;
22439;SDS011;11387;51.612;7.210;2023-02-18T03:20:30;103.47;;;44.17;;
22439;SDS011;11387;51.612;7.210;2023-02-18T03:23:04;92.38;;;40.17;;
22439;SDS011;11387;51.612;7.210;2023-02-18T03:25:36;84.50;;;38.15;;
22439;SDS011;11387;51.612;7.210;2023-02-18T03:28:06;88.57;;;37.72;;
22439;SDS011;11387;51.612;7.210;2023-02-18T03:30:39;87.15;;;37.88;;
22439;SDS011;11387;51.612;7.210;2023-02-18T03:33:12;80.30;;;36.40;;
22439;SDS011;11387;51.612;7.210;2023-02-18T03:35:44;72.30;;;35.83;;
22439;SDS011;11387;51.612;7.210;2023-02-18T03:38:17;72.00;;;33.80;;
22439;SDS011;11387;51.612;7.210;2023-02-18T03:40:48;66.75;;;35.90;;
22439;SDS011;11387;51.612;7.210;2023-02-18T03:43:17;75.70;;;37.97;;
22439;SDS011;11387;51.612;7.210;2023-02-18T03:45:46;77.95;;;39.53;;
22439;SDS011;11387;51.612;7.210;2023-02-18T03:48:14;67.07;;;37.75;;
22439;SDS011;11387;51.612;7.210;2023-02-18T03:50:42;68.35;;;37.85;;
22439;SDS011;11387;51.612;7.210;2023-02-18T03:53:11;71.97;;;38.78;;
22439;SDS011;11387;51.612;7.210;2023-02-18T03:55:41;86.18;;;40.75;;
22439;SDS011;11387;51.612;7.210;2023-02-18T03:58:09;88.05;;;43.70;;
22439;SDS011;11387;51.612;7.210;2023-02-18T04:00:37;92.75;;;40.65;;
22439;SDS011;11387;51.612;7.210;2023-02-18T04:03:06;76.40;;;38.55;;
22439;SDS011;11387;51.612;7.210;2023-02-18T04:05:34;89.97;;;40.28;;
22439;SDS011;11387;51.612;7.210;2023-02-18T04:08:03;82.00;;;40.42;;
22439;SDS011;11387;51.612;7.210;2023-02-18T04:10:31;89.03;;;41.53;;
22439;SDS011;11387;51.612;7.210;2023-02-18T04:13:01;93.57;;;42.75;;
22439;SDS011;11387;51.612;7.210;2023-02-18T04:15:29;90.15;;;41.25;;
22439;SDS011;11387;51.612;7.210;2023-02-18T04:17:58;94.97;;;43.15;;
22439;SDS011;11387;51.612;7.210;2023-02-18T04:20:27;85.68;;;39.38;;
22439;SDS011;11387;51.612;7.210;2023-02-18T04:22:55;77.00;;;38.00;;
22439;SDS011;11387;51.612;7.210;2023-02-18T04:25:24;88.18;;;41.80;;
22439;SDS011;11387;51.612;7.210;2023-02-18T04:27:52;90.95;;;42.83;;
22439;SDS011;11387;51.612;7.210;2023-02-18T04:30:22;96.82;;;42.03;;
22439;SDS011;11387;51.612;7.210;2023-02-18T04:32:50;83.43;;;39.22;;
22439;SDS011;11387;51.612;7.210;2023-02-18T04:35:19;91.22;;;42.20;;
22439;SDS011;11387;51.612;7.210;2023-02-18T04:37:47;110.05;;;44.05;;
22439;SDS011;11387;51.612;7.210;2023-02-18T04:40:16;93.68;;;39.42;;
22439;SDS011;11387;51.612;7.210;2023-02-18T04:42:44;96.20;;;39.47;;
22439;SDS011;11387;51.612;7.210;2023-02-18T04:45:13;93.65;;;39.20;;
22439;SDS011;11387;51.612;7.210;2023-02-18T04:47:43;96.90;;;38.80;;
22439;SDS011;11387;51.612;7.210;2023-02-18T04:50:11;84.55;;;34.42;;
22439;SDS011;11387;51.612;7.210;2023-02-18T04:52:39;91.70;;;35.85;;
22439;SDS011;11387;51.612;7.210;2023-02-18T04:55:08;96.75;;;37.10;;
22439;SDS011;11387;51.612;7.210;2023-02-18T04:57:37;92.50;;;39.08;;
22439;SDS011;11387;51.612;7.210;2023-02-18T05:00:06;80.13;;;34.72;;
22439;SDS011;11387;51.612;7.210;2023-02-18T05:02:37;87.93;;;38.35;;
22439;SDS011;11387;51.612;7.210;2023-02-18T05:05:07;83.32;;;36.22;;
22439;SDS011;11387;51.612;7.210;2023-02-18T05:07:35;87.80;;;37.92;;
22439;SDS011;11387;51.612;7.210;2023-02-18T05:10:04;94.82;;;39.22;;
22439;SDS011;11387;51.612;7.210;2023-02-18T05:12:35;70.80;;;33.75;;
22439;SDS011;11387;51.612;7.210;2023-02-18T05:15:05;70.78;;;32.67;;
22439;SDS011;11387;51.612;7.210;2023-02-18T05:17:34;71.35;;;31.23;;
22439;SDS011;11387;51.612;7.210;2023-02-18T05:20:03;63.83;;;29.20;;
22439;SDS011;11387;51.612;7.210;2023-02-18T05:22:37;58.45;;;29.45;;
22439;SDS011;11387;51.612;7.210;2023-02-18T05:25:06;54.25;;;28.20;;
22439;SDS011;11387;51.612;7.210;2023-02-18T05:27:34;52.95;;;25.33;;
22439;SDS011;11387;51.612;7.210;2023-02-18T05:30:03;48.97;;;23.92;;
22439;SDS011;11387;51.612;7.210;2023-02-18T05:32:32;38.33;;;19.77;;
22439;SDS011;11387;51.612;7.210;2023-02-18T05:35:01;42.03;;;22.27;;
22439;SDS011;11387;51.612;7.210;2023-02-18T05:37:29;33.22;;;17.08;;
22439;SDS011;11387;51.612;7.210;2023-02-18T05:39:59;38.97;;;18.35;;
22439;SDS011;11387;51.612;7.210;2023-02-18T05:42:27;27.73;;;15.15;;
22439;SDS011;11387;51.612;7.210;2023-02-18T05:44:56;29.25;;;16.42;;
22439;SDS011;11387;51.612;7.210;2023-02-18T05:47:24;32.58;;;15.73;;
22439;SDS011;11387;51.612;7.210;2023-02-18T05:49:52;30.17;;;15.10;;
22439;SDS011;11387;51.612;7.210;2023-02-18T05:52:22;26.95;;;14.50;;
22439;SDS011;11387;51.612;7.210;2023-02-18T05:54:50;23.25;;;12.65;;
22439;SDS011;11387;51.612;7.210;2023-02-18T05:57:20;18.05;;;12.20;;
22439;SDS011;11387;51.612;7.210;2023-02-18T05:59:48;21.13;;;13.38;;
22439;SDS011;11387;51.612;7.210;2023-02-18T06:02:17;22.63;;;13.35;;
22439;SDS011;11387;51.612;7.210;2023-02-18T06:04:45;21.17;;;14.07;;
22439;SDS011;11387;51.612;7.210;2023-02-18T06:07:14;19.25;;;12.73;;
22439;SDS011;11387;51.612;7.210;2023-02-18T06:09:42;19.73;;;14.43;;
22439;SDS011;11387;51.612;7.210;2023-02-18T06:12:11;18.23;;;12.55;;
22439;SDS011;11387;51.612;7.210;2023-02-18T06:14:41;20.20;;;12.88;;
22439;SDS011;11387;51.612;7.210;2023-02-18T06:17:10;15.73;;;10.63;;
22439;SDS011;11387;51.612;7.210;2023-02-18T06:19:40;16.05;;;11.38;;
22439;SDS011;11387;51.612;7.210;2023-02-18T06:22:08;21.10;;;12.38;;
22439;SDS011;11387;51.612;7.210;2023-02-18T06:24:37;18.88;;;11.70;;
22439;SDS011;11387;51.612;7.210;2023-02-18T06:27:05;19.95;;;12.55;;
22439;SDS011;11387;51.612;7.210;2023-02-18T06:29:34;17.02;;;11.40;;
22439;SDS011;11387;51.612;7.210;2023-02-18T06:32:04;22.60;;;12.48;;
22439;SDS011;11387;51.612;7.210;2023-02-18T06:34:32;21.13;;;11.45;;
22439;SDS011;11387;51.612;7.210;2023-02-18T06:37:01;16.88;;;10.48;;
22439;SDS011;11387;51.612;7.210;2023-02-18T06:39:30;13.52;;;9.63;;
22439;SDS011;11387;51.612;7.210;2023-02-18T06:41:58;15.57;;;10.15;;
22439;SDS011;11387;51.612;7.210;2023-02-18T06:44:26;14.63;;;9.88;;
22439;SDS011;11387;51.612;7.210;2023-02-18T06:46:55;14.45;;;8.88;;
22439;SDS011;11387;51.612;7.210;2023-02-18T06:52:17;12.77;;;8.23;;
22439;SDS011;11387;51.612;7.210;2023-02-18T06:54:45;11.52;;;8.02;;
22439;SDS011;11387;51.612;7.210;2023-02-18T06:57:13;11.48;;;6.80;;
22439;SDS011;11387;51.612;7.210;2023-02-18T06:59:42;10.73;;;7.20;;
22439;SDS011;11387;51.612;7.210;2023-02-18T07:02:11;11.10;;;8.00;;
22439;SDS011;11387;51.612;7.210;2023-02-18T07:04:40;14.00;;;8.35;;
22439;SDS011;11387;51.612;7.210;2023-02-18T07:07:12;9.68;;;6.60;;
22439;SDS011;11387;51.612;7.210;2023-02-18T07:09:41;11.90;;;7.03;;
22439;SDS011;11387;51.612;7.210;2023-02-18T07:12:09;12.25;;;7.50;;
22439;SDS011;11387;51.612;7.210;2023-02-18T07:14:39;18.35;;;9.38;;
22439;SDS011;11387;51.612;7.210;2023-02-18T07:17:09;17.67;;;8.55;;
22439;SDS011;11387;51.612;7.210;2023-02-18T07:19:38;15.00;;;9.27;;
22439;SDS011;11387;51.612;7.210;2023-02-18T07:22:06;21.17;;;9.45;;
22439;SDS011;11387;51.612;7.210;2023-02-18T07:24:38;16.98;;;9.27;;
22439;SDS011;11387;51.612;7.210;2023-02-18T07:27:07;15.98;;;9.05;;
22439;SDS011;11387;51.612;7.210;2023-02-18T07:29:36;16.65;;;9.35;;
22439;SDS011;11387;51.612;7.210;2023-02-18T07:32:04;18.02;;;9.95;;
22439;SDS011;11387;51.612;7.210;2023-02-18T07:34:32;13.93;;;8.93;;
22439;SDS011;11387;51.612;7.210;2023-02-18T07:37:01;16.45;;;8.65;;
22439;SDS011;11387;51.612;7.210;2023-02-18T07:39:30;12.20;;;7.97;;
22439;SDS011;11387;51.612;7.210;2023-02-18T07:42:00;13.05;;;8.52;;
22439;SDS011;11387;51.612;7.210;2023-02-18T07:44:29;15.85;;;9.25;;
22439;SDS011;11387;51.612;7.210;2023-02-18T07:46:58;18.35;;;10.02;;
22439;SDS011;11387;51.612;7.210;2023-02-18T07:49:27;16.10;;;9.25;;
22439;SDS011;11387;51.612;7.210;2023-02-18T07:51:55;18.17;;;9.50;;
22439;SDS011;11387;51.612;7.210;2023-02-18T07:54:23;10.43;;;7.95;;
22439;SDS011;11387;51.612;7.210;2023-02-18T07:56:52;13.00;;;8.73;;
22439;SDS011;11387;51.612;7.210;2023-02-18T07:59:23;12.75;;;8.80;;
22439;SDS011;11387;51.612;7.210;2023-02-18T08:01:52;13.32;;;8.35;;
22439;SDS011;11387;51.612;7.210;2023-02-18T08:04:20;11.90;;;8.85;;
22439;SDS011;11387;51.612;7.210;2023-02-18T08:06:50;19.92;;;12.07;;
22439;SDS011;11387;51.612;7.210;2023-02-18T08:09:19;18.20;;;13.07;;
22439;SDS011;11387;51.612;7.210;2023-02-18T08:11:47;19.95;;;14.20;;
22439;SDS011;11387;51.612;7.210;2023-02-18T08:14:16;26.08;;;15.13;;
22439;SDS011;11387;51.612;7.210;2023-02-18T08:16:46;22.25;;;14.32;;
22439;SDS011;11387;51.612;7.210;2023-02-18T08:19:15;20.63;;;12.25;;
22439;SDS011;11387;51.612;7.210;2023-02-18T08:21:44;13.55;;;9.50;;
22439;SDS011;11387;51.612;7.210;2023-02-18T08:24:13;12.68;;;8.48;;
22439;SDS011;11387;51.612;7.210;2023-02-18T08:26:41;13.05;;;8.35;;
22439;SDS011;11387;51.612;7.210;2023-02-18T08:29:26;14.02;;;7.97;;
22439;SDS011;11387;51.612;7.210;2023-02-18T08:31:57;12.73;;;8.30;;
22439;SDS011;11387;51.612;7.210;2023-02-18T08:34:25;10.90;;;7.35;;
22439;SDS011;11387;51.612;7.210;2023-02-18T08:36:54;9.65;;;6.63;;
22439;SDS011;11387;51.612;7.210;2023-02-18T08:39:22;8.05;;;5.70;;
22439;SDS011;11387;51.612;7.210;2023-02-18T08:41:51;7.45;;;4.43;;
22439;SDS011;11387;51.612;7.210;2023-02-18T08:44:19;7.57;;;4.82;;
22439;SDS011;11387;51.612;7.210;2023-02-18T08:46:47;7.43;;;5.38;;
22439;SDS011;11387;51.612;7.210;2023-02-18T08:49:17;9.65;;;6.53;;
22439;SDS011;11387;51.612;7.210;2023-02-18T08:51:46;11.65;;;7.10;;
22439;SDS011;11387;51.612;7.210;2023-02-18T08:54:16;11.18;;;8.30;;
22439;SDS011;11387;51.612;7.210;2023-02-18T08:56:44;14.18;;;8.85;;
22439;SDS011;11387;51.612;7.210;2023-02-18T08:59:13;11.63;;;7.20;;
22439;SDS011;11387;51.612;7.210;2023-02-18T09:01:42;11.30;;;7.85;;
22439;SDS011;11387;51.612;7.210;2023-02-18T09:04:10;13.93;;;7.90;;
22439;SDS011;11387;51.612;7.210;2023-02-18T09:06:43;13.98;;;8.57;;
22439;SDS011;11387;51.612;7.210;2023-02-18T09:09:12;16.63;;;9.43;;
22439;SDS011;11387;51.612;7.210;2023-02-18T09:11:41;13.32;;;8.88;;
22439;SDS011;11387;51.612;7.210;2023-02-18T09:14:10;19.25;;;9.00;;
22439;SDS011;11387;51.612;7.210;2023-02-18T09:16:40;15.55;;;9.10;;
22439;SDS011;11387;51.612;7.210;2023-02-18T09:19:09;16.35;;;9.82;;
22439;SDS011;11387;51.612;7.210;2023-02-18T09:21:38;18.90;;;10.30;;
22439;SDS011;11387;51.612;7.210;2023-02-18T09:24:08;24.80;;;11.90;;
22439;SDS011;11387;51.612;7.210;2023-02-18T09:26:37;17.05;;;11.43;;
22439;SDS011;11387;51.612;7.210;2023-02-18T09:29:08;22.98;;;12.90;;
22439;SDS011;11387;51.612;7.210;2023-02-18T09:31:37;23.73;;;10.95;;
22439;SDS011;11387;51.612;7.210;2023-02-18T09:34:06;23.38;;;10.25;;
22439;SDS011;11387;51.612;7.210;2023-02-18T09:36:35;16.13;;;9.48;;
22439;SDS011;11387;51.612;7.210;2023-02-18T09:39:06;16.10;;;9.20;;
22439;SDS011;11387;51.612;7.210;2023-02-18T09:41:38;22.33;;;9.40;;
22439;SDS011;11387;51.612;7.210;2023-02-18T09:44:10;19.38;;;10.15;;
22439;SDS011;11387;51.612;7.210;2023-02-18T09:46:45;24.02;;;10.85;;
22439;SDS011;11387;51.612;7.210;2023-02-18T09:49:19;25.73;;;12.60;;
22439;SDS011;11387;51.612;7.210;2023-02-18T09:51:50;37.17;;;13.38;;
22439;SDS011;11387;51.612;7.210;2023-02-18T09:54:20;32.63;;;14.38;;
22439;SDS011;11387;51.612;7.210;2023-02-18T09:56:50;19.13;;;12.27;;
22439;SDS011;11387;51.612;7.210;2023-02-18T09:59:21;34.28;;;14.55;;
22439;SDS011;11387;51.612;7.210;2023-02-18T10:01:52;31.52;;;15.00;;
22439;SDS011;11387;51.612;7.210;2023-02-18T10:04:24;24.05;;;13.20;;
22439;SDS011;11387;51.612;7.210;2023-02-18T10:06:57;42.20;;;15.20;;
22439;SDS011;11387;51.612;7.210;2023-02-18T10:09:27;23.17;;;14.93;;
22439;SDS011;11387;51.612;7.210;2023-02-18T10:12:06;31.52;;;13.45;;
22439;SDS011;11387;51.612;7.210;2023-02-18T10:14:41;34.33;;;11.70;;
22439;SDS011;11387;51.612;7.210;2023-02-18T10:17:11;32.10;;;12.18;;
22439;SDS011;11387;51.612;7.210;2023-02-18T10:19:44;28.10;;;10.50;;
22439;SDS011;11387;51.612;7.210;2023-02-18T10:22:15;35.55;;;11.88;;
22439;SDS011;11387;51.612;7.210;2023-02-18T10:24:45;28.65;;;11.30;;
22439;SDS011;11387;51.612;7.210;2023-02-18T10:27:20;33.30;;;12.43;;
22439;SDS011;11387;51.612;7.210;2023-02-18T10:29:52;22.95;;;10.60;;
22439;SDS011;11387;51.612;7.210;2023-02-18T10:32:22;27.23;;;12.27;;
22439;SDS011;11387;51.612;7.210;2023-02-18T10:34:56;33.55;;;14.25;;
22439;SDS011;11387;51.612;7.210;2023-02-18T10:40:24;27.30;;;12.20;;
22439;SDS011;11387;51.612;7.210;2023-02-18T10:43:05;25.98;;;10.57;;
22439;SDS011;11387;51.612;7.210;2023-02-18T10:45:44;25.27;;;10.23;;
22439;SDS011;11387;51.612;7.210;2023-02-18T10:48:35;28.70;;;10.38;;
22439;SDS011;11387;51.612;7.210;2023-02-18T10:51:15;25.85;;;10.70;;
22439;SDS011;11387;51.612;7.210;2023-02-18T10:53:48;25.65;;;10.35;;
22439;SDS011;11387;51.612;7.210;2023-02-18T10:56:36;31.80;;;11.65;;
22439;SDS011;11387;51.612;7.210;2023-02-18T10:59:12;26.52;;;11.52;;
22439;SDS011;11387;51.612;7.210;2023-02-18T11:01:51;29.05;;;11.00;;
22439;SDS011;11387;51.612;7.210;2023-02-18T11:04:24;31.63;;;12.88;;
22439;SDS011;11387;51.612;7.210;2023-02-18T11:06:55;37.05;;;15.50;;
22439;SDS011;11387;51.612;7.210;2023-02-18T11:09:33;27.65;;;15.85;;
22439;SDS011;11387;51.612;7.210;2023-02-18T11:12:13;32.13;;;17.48;;
22439;SDS011;11387;51.612;7.210;2023-02-18T11:14:46;32.50;;;17.70;;
22439;SDS011;11387;51.612;7.210;2023-02-18T11:17:18;35.60;;;17.63;;
22439;SDS011;11387;51.612;7.210;2023-02-18T11:19:53;38.15;;;20.95;;
22439;SDS011;11387;51.612;7.210;2023-02-18T11:22:24;35.03;;;19.70;;
22439;SDS011;11387;51.612;7.210;2023-02-18T11:24:56;41.17;;;22.65;;
22439;SDS011;11387;51.612;7.210;2023-02-18T11:27:27;43.10;;;22.70;;
22439;SDS011;11387;51.612;7.210;2023-02-18T11:30:06;36.53;;;22.20;;
22439;SDS011;11387;51.612;7.210;2023-02-18T11:32:47;40.15;;;23.25;;
22439;SDS011;11387;51.612;7.210;2023-02-18T11:35:18;35.25;;;22.60;;
22439;SDS011;11387;51.612;7.210;2023-02-18T11:37:48;43.22;;;21.83;;
22439;SDS011;11387;51.612;7.210;2023-02-18T11:40:21;49.58;;;25.90;;
22439;SDS011;11387;51.612;7.210;2023-02-18T11:43:01;41.33;;;23.67;;
22439;SDS011;11387;51.612;7.210;2023-02-18T11:45:33;41.03;;;27.02;;
22439;SDS011;11387;51.612;7.210;2023-02-18T11:48:05;44.75;;;26.25;;
22439;SDS011;11387;51.612;7.210;2023-02-18T11:50:35;38.90;;;23.85;;
22439;SDS011;11387;51.612;7.210;2023-02-18T11:53:23;39.15;;;24.65;;
22439;SDS011;11387;51.612;7.210;2023-02-18T11:55:56;37.80;;;23.50;;
22439;SDS011;11387;51.612;7.210;2023-02-18T11:58:27;35.67;;;24.27;;
22439;SDS011;11387;51.612;7.210;2023-02-18T12:01:11;44.67;;;25.50;;
22439;SDS011;11387;51.612;7.210;2023-02-18T12:03:45;42.67;;;25.33;;
22439;SDS011;11387;51.612;7.210;2023-02-18T12:06:20;41.65;;;26.05;;
22439;SDS011;11387;51.612;7.210;2023-02-18T12:08:55;38.40;;;23.40;;
22439;SDS011;11387;51.612;7.210;2023-02-18T12:11:29;41.17;;;25.15;;
22439;SDS011;11387;51.612;7.210;2023-02-18T12:14:07;35.55;;;24.25;;
22439;SDS011;11387;51.612;7.210;2023-02-18T12:16:42;35.03;;;23.55;;
22439;SDS011;11387;51.612;7.210;2023-02-18T12:19:21;38.93;;;24.50;;
22439;SDS011;11387;51.612;7.210;2023-02-18T12:22:03;40.17;;;24.92;;
22439;SDS011;11387;51.612;7.210;2023-02-18T12:24:44;40.72;;;24.33;;
22439;SDS011;11387;51.612;7.210;2023-02-18T12:27:26;36.22;;;22.65;;
22439;SDS011;11387;51.612;7.210;2023-02-18T12:33:23;33.42;;;23.85;;
22439;SDS011;11387;51.612;7.210;2023-02-18T12:36:06;36.22;;;23.73;;
22439;SDS011;11387;51.612;7.210;2023-02-18T12:38:54;33.88;;;23.02;;
22439;SDS011;11387;51.612;7.210;2023-02-18T12:44:29;34.50;;;22.65;;
22439;SDS011;11387;51.612;7.210;2023-02-18T12:47:21;34.55;;;23.23;;
22439;SDS011;11387;51.612;7.210;2023-02-18T12:50:12;37.55;;;22.92;;
22439;SDS011;11387;51.612;7.210;2023-02-18T12:52:56;35.15;;;23.42;;
22439;SDS011;11387;51.612;7.210;2023-02-18T12:55:44;39.13;;;24.48;;
22439;SDS011;11387;51.612;7.210;2023-02-18T12:58:26;37.67;;;23.50;;
22439;SDS011;11387;51.612;7.210;2023-02-18T13:01:17;34.50;;;23.23;;
22439;SDS011;11387;51.612;7.210;2023-02-18T13:04:00;36.50;;;23.15;;
22439;SDS011;11387;51.612;7.210;2023-02-18T13:06:51;38.08;;;24.48;;
22439;SDS011;11387;51.612;7.210;2023-02-18T13:09:46;42.38;;;25.55;;
22439;SDS011;11387;51.612;7.210;2023-02-18T13:12:29;42.55;;;26.60;;
22439;SDS011;11387;51.612;7.210;2023-02-18T13:15:02;35.22;;;24.13;;
22439;SDS011;11387;51.612;7.210;2023-02-18T13:17:38;36.30;;;24.48;;
22439;SDS011;11387;51.612;7.210;2023-02-18T13:20:13;43.63;;;29.17;;
22439;SDS011;11387;51.612;7.210;2023-02-18T13:22:51;39.10;;;27.67;;
22439;SDS011;11387;51.612;7.210;2023-02-18T13:25:20;42.03;;;29.50;;
22439;SDS011;11387;51.612;7.210;2023-02-18T13:27:52;45.42;;;31.52;;
22439;SDS011;11387;51.612;7.210;2023-02-18T13:30:30;51.17;;;31.88;;
22439;SDS011;11387;51.612;7.210;2023-02-18T13:33:07;44.13;;;30.52;;
22439;SDS011;11387;51.612;7.210;2023-02-18T13:35:43;56.70;;;35.85;;
22439;SDS011;11387;51.612;7.210;2023-02-18T13:38:43;53.00;;;34.83;;
22439;SDS011;11387;51.612;7.210;2023-02-18T13:41:20;50.40;;;32.05;;
22439;SDS011;11387;51.612;7.210;2023-02-18T13:43:51;55.28;;;36.35;;
22439;SDS011;11387;51.612;7.210;2023-02-18T13:46:34;54.58;;;35.33;;
22439;SDS011;11387;51.612;7.210;2023-02-18T13:49:33;55.55;;;35.47;;
22439;SDS011;11387;51.612;7.210;2023-02-18T13:52:15;57.33;;;33.35;;
22439;SDS011;11387;51.612;7.210;2023-02-18T13:54:48;45.72;;;31.52;;
22439;SDS011;11387;51.612;7.210;2023-02-18T13:57:18;53.53;;;32.58;;
22439;SDS011;11387;51.612;7.210;2023-02-18T13:59:49;51.03;;;33.55;;
22439;SDS011;11387;51.612;7.210;2023-02-18T14:02:28;54.17;;;32.35;;
22439;SDS011;11387;51.612;7.210;2023-02-18T14:05:13;54.95;;;34.65;;
22439;SDS011;11387;51.612;7.210;2023-02-18T14:07:48;54.13;;;34.83;;
22439;SDS011;11387;51.612;7.210;2023-02-18T14:10:30;55.67;;;35.95;;
22439;SDS011;11387;51.612;7.210;2023-02-18T14:13:17;49.47;;;31.67;;
22439;SDS011;11387;51.612;7.210;2023-02-18T14:15:58;50.38;;;31.67;;
22439;SDS011;11387;51.612;7.210;2023-02-18T14:18:33;52.30;;;32.28;;
22439;SDS011;11387;51.612;7.210;2023-02-18T14:21:34;58.33;;;35.00;;
22439;SDS011;11387;51.612;7.210;2023-02-18T14:24:08;63.13;;;34.70;;
22439;SDS011;11387;51.612;7.210;2023-02-18T14:26:44;53.25;;;34.15;;
22439;SDS011;11387;51.612;7.210;2023-02-18T14:29:17;50.45;;;32.65;;
22439;SDS011;11387;51.612;7.210;2023-02-18T14:31:51;56.38;;;34.58;;
22439;SDS011;11387;51.612;7.210;2023-02-18T14:34:39;53.35;;;33.33;;
22439;SDS011;11387;51.612;7.210;2023-02-18T14:37:54;65.53;;;36.88;;
22439;SDS011;11387;51.612;7.210;2023-02-18T14:40:38;61.22;;;31.98;;
22439;SDS011;11387;51.612;7.210;2023-02-18T14:43:24;56.45;;;36.05;;
22439;SDS011;11387;51.612;7.210;2023-02-18T14:46:16;57.70;;;33.17;;
22439;SDS011;11387;51.612;7.210;2023-02-18T14:49:03;52.65;;;31.40;;
22439;SDS011;11387;51.612;7.210;2023-02-18T14:51:44;59.67;;;34.30;;
22439;SDS011;11387;51.612;7.210;2023-02-18T14:54:16;54.67;;;31.67;;
22439;SDS011;11387;51.612;7.210;2023-02-18T14:56:50;50.00;;;32.25;;
22439;SDS011;11387;51.612;7.210;2023-02-18T14:59:24;56.53;;;33.75;;
22439;SDS011;11387;51.612;7.210;2023-02-18T15:01:55;58.85;;;34.92;;
22439;SDS011;11387;51.612;7.210;2023-02-18T15:04:24;51.10;;;33.05;;
22439;SDS011;11387;51.612;7.210;2023-02-18T15:06:57;49.85;;;32.38;;
22439;SDS011;11387;51.612;7.210;2023-02-18T15:09:28;51.67;;;32.33;;
22439;SDS011;11387;51.612;7.210;2023-02-18T15:11:58;49.50;;;32.88;;
22439;SDS011;11387;51.612;7.210;2023-02-18T15:14:30;59.08;;;35.95;;
22439;SDS011;11387;51.612;7.210;2023-02-18T15:17:01;52.70;;;33.88;;
22439;SDS011;11387;51.612;7.210;2023-02-18T15:19:33;47.35;;;31.85;;